Time,TemperatureF,DewpointF,PressureIn,WindDirection,WindDirectionDegrees,WindSpeedMPH,WindSpeedGustMPH,Humidity,HourlyPrecipIn,Conditions,Clouds,dailyrainin,SoftwareType,DateUTC
2013-02-02 00:00:00,8.0,-7.0,-100.00,WNW,290,9.0,-999.0,50,-99.99,,,-99.99,,2013-02-02 04:00:00,
2013-02-02 00:21:00,8.0,-7.0,-100.00,WNW,290,9.0,-999.0,50,-99.99,,,-99.99,,2013-02-02 04:21:00,
2013-02-02 00:32:00,8.0,-7.0,-100.00,WNW,290,9.0,-999.0,50,-99.99,,,-99.99,,2013-02-02 04:32:00,
2013-02-02 00:41:00,8.0,-7.0,-100.00,WNW,290,9.0,-999.0,50,-99.99,,,-99.99,,2013-02-02 04:41:00,
2013-02-02 00:51:00,8.0,-7.0,-100.00,WNW,290,9.0,-999.0,50,-99.99,,,-99.99,,2013-02-02 04:51:00,
2013-02-02 01:00:00,7.0,-6.0,-100.00,WNW,300,7.0,-999.0,54,-99.99,,,-99.99,,2013-02-02 05:00:00,
2013-02-02 01:22:00,7.0,-6.0,-100.00,WNW,300,7.0,-999.0,54,-99.99,,,-99.99,,2013-02-02 05:22:00,
2013-02-02 01:32:00,7.0,-6.0,-100.00,WNW,300,7.0,-999.0,54,-99.99,,,-99.99,,2013-02-02 05:32:00,
2013-02-02 01:41:00,7.0,-6.0,-100.00,WNW,300,7.0,-999.0,54,-99.99,,,-99.99,,2013-02-02 05:41:00,
2013-02-02 01:51:00,7.0,-6.0,-100.00,WNW,300,7.0,-999.0,54,-99.99,,,-99.99,,2013-02-02 05:51:00,
2013-02-02 02:00:00,6.0,-6.0,-100.00,NW,310,8.0,-999.0,56,-99.99,,,-99.99,,2013-02-02 06:00:00,
2013-02-02 02:21:00,6.0,-6.0,-100.00,NW,310,8.0,-999.0,56,-99.99,,,-99.99,,2013-02-02 06:21:00,
2013-02-02 02:31:00,6.0,-6.0,-100.00,NW,310,8.0,-999.0,56,-99.99,,,-99.99,,2013-02-02 06:31:00,
2013-02-02 02:41:00,6.0,-6.0,-100.00,NW,310,8.0,-999.0,56,-99.99,,,-99.99,,2013-02-02 06:41:00,
2013-02-02 02:51:00,6.0,-6.0,-100.00,NW,310,8.0,-999.0,56,-99.99,,,-99.99,,2013-02-02 06:51:00,
2013-02-02 03:00:00,5.0,-6.0,-100.00,NW,320,7.0,-999.0,59,-99.99,,,-99.99,,2013-02-02 07:00:00,
2013-02-02 03:21:00,5.0,-6.0,-100.00,NW,320,7.0,-999.0,59,-99.99,,,-99.99,,2013-02-02 07:21:00,
2013-02-02 03:31:00,5.0,-6.0,-100.00,NW,320,7.0,-999.0,59,-99.99,,,-99.99,,2013-02-02 07:31:00,
2013-02-02 03:41:00,5.0,-6.0,-100.00,NW,320,7.0,-999.0,59,-99.99,,,-99.99,,2013-02-02 07:41:00,
2013-02-02 03:51:00,5.0,-6.0,-100.00,NW,320,7.0,-999.0,59,-99.99,,,-99.99,,2013-02-02 07:51:00,
2013-02-02 04:00:00,4.0,-7.0,-100.00,NNW,330,6.0,-999.0,59,-99.99,,,-99.99,,2013-02-02 08:00:00,
2013-02-02 04:21:00,4.0,-7.0,-100.00,NNW,330,6.0,-999.0,59,-99.99,,,-99.99,,2013-02-02 08:21:00,
2013-02-02 04:31:00,4.0,-7.0,-100.00,NNW,330,6.0,-999.0,59,-99.99,,,-99.99,,2013-02-02 08:31:00,
2013-02-02 04:41:00,4.0,-7.0,-100.00,NNW,330,6.0,-999.0,59,-99.99,,,-99.99,,2013-02-02 08:41:00,
2013-02-02 04:52:00,4.0,-7.0,-100.00,NNW,330,6.0,-999.0,59,-99.99,,,-99.99,,2013-02-02 08:52:00,
2013-02-02 05:00:00,3.0,-8.0,-100.00,WNW,300,6.0,-999.0,59,-99.99,,,-99.99,,2013-02-02 09:00:00,
2013-02-02 05:22:00,3.0,-8.0,-100.00,WNW,300,6.0,-999.0,59,-99.99,,,-99.99,,2013-02-02 09:22:00,
2013-02-02 05:31:00,3.0,-8.0,-100.00,WNW,300,6.0,-999.0,59,-99.99,,,-99.99,,2013-02-02 09:31:00,
2013-02-02 05:41:00,3.0,-8.0,-100.00,WNW,300,6.0,-999.0,59,-99.99,,,-99.99,,2013-02-02 09:41:00,
2013-02-02 05:51:00,3.0,-8.0,-100.00,WNW,300,6.0,-999.0,59,-99.99,,,-99.99,,2013-02-02 09:51:00,
2013-02-02 06:00:00,3.0,-7.0,-100.00,WNW,300,3.0,-999.0,62,-99.99,,,-99.99,,2013-02-02 10:00:00,
2013-02-02 06:21:00,3.0,-7.0,-100.00,WNW,300,3.0,-999.0,62,-99.99,,,-99.99,,2013-02-02 10:21:00,
2013-02-02 06:31:00,3.0,-7.0,-100.00,WNW,300,3.0,-999.0,62,-99.99,,,-99.99,,2013-02-02 10:31:00,
2013-02-02 06:41:00,3.0,-7.0,-100.00,WNW,300,3.0,-999.0,62,-99.99,,,-99.99,,2013-02-02 10:41:00,
2013-02-02 06:51:00,3.0,-7.0,-100.00,WNW,300,3.0,-999.0,62,-99.99,,,-99.99,,2013-02-02 10:51:00,
2013-02-02 07:00:00,3.0,-8.0,-100.00,NNW,330,5.0,-999.0,60,-99.99,,,-99.99,,2013-02-02 11:00:00,
2013-02-02 07:21:00,3.0,-8.0,-100.00,NNW,330,5.0,-999.0,60,-99.99,,,-99.99,,2013-02-02 11:21:00,
2013-02-02 07:31:00,3.0,-8.0,-100.00,NNW,330,5.0,-999.0,60,-99.99,,,-99.99,,2013-02-02 11:31:00,
2013-02-02 07:41:00,3.0,-8.0,-100.00,NNW,330,5.0,-999.0,60,-99.99,,,-99.99,,2013-02-02 11:41:00,
2013-02-02 07:52:00,3.0,-8.0,-100.00,NNW,330,5.0,-999.0,60,-99.99,,,-99.99,,2013-02-02 11:52:00,
2013-02-02 08:00:00,3.0,-8.0,-100.00,NW,320,3.0,-999.0,60,-99.99,,,-99.99,,2013-02-02 12:00:00,
2013-02-02 08:22:00,3.0,-8.0,-100.00,NW,320,3.0,-999.0,60,-99.99,,,-99.99,,2013-02-02 12:22:00,
2013-02-02 08:32:00,3.0,-8.0,-100.00,NW,320,3.0,-999.0,60,-99.99,,,-99.99,,2013-02-02 12:32:00,
2013-02-02 08:42:00,3.0,-8.0,-100.00,NW,320,3.0,-999.0,60,-99.99,,,-99.99,,2013-02-02 12:42:00,
2013-02-02 08:52:00,3.0,-8.0,-100.00,NW,320,3.0,-999.0,60,-99.99,,,-99.99,,2013-02-02 12:52:00,
2013-02-02 09:00:00,4.0,-7.0,-100.00,NNW,330,1.0,-999.0,61,-99.99,,,-99.99,,2013-02-02 13:00:00,
2013-02-02 09:21:00,4.0,-7.0,-100.00,NNW,330,1.0,-999.0,61,-99.99,,,-99.99,,2013-02-02 13:21:00,
2013-02-02 09:32:00,4.0,-7.0,-100.00,NNW,330,1.0,-999.0,61,-99.99,,,-99.99,,2013-02-02 13:32:00,
2013-02-02 09:42:00,4.0,-7.0,-100.00,NNW,330,1.0,-999.0,61,-99.99,,,-99.99,,2013-02-02 13:42:00,
2013-02-02 09:51:00,4.0,-7.0,-100.00,NNW,330,1.0,-999.0,61,-99.99,,,-99.99,,2013-02-02 13:51:00,
2013-02-02 10:00:00,4.0,-4.0,-100.00,East,90,5.0,-999.0,70,-99.99,,,-99.99,,2013-02-02 14:00:00,
2013-02-02 10:21:00,4.0,-4.0,-100.00,East,90,5.0,-999.0,70,-99.99,,,-99.99,,2013-02-02 14:21:00,
2013-02-02 10:31:00,4.0,-4.0,-100.00,East,90,5.0,-999.0,70,-99.99,,,-99.99,,2013-02-02 14:31:00,
2013-02-02 10:41:00,4.0,-4.0,-100.00,East,90,5.0,-999.0,70,-99.99,,,-99.99,,2013-02-02 14:41:00,
2013-02-02 10:52:00,4.0,-4.0,-100.00,East,90,5.0,-999.0,70,-99.99,,,-99.99,,2013-02-02 14:52:00,
2013-02-02 11:00:00,4.0,-3.0,-100.00,East,90,5.0,-999.0,72,-99.99,,,-99.99,,2013-02-02 15:00:00,
2013-02-02 11:21:00,4.0,-3.0,-100.00,East,90,5.0,-999.0,72,-99.99,,,-99.99,,2013-02-02 15:21:00,
2013-02-02 11:32:00,4.0,-3.0,-100.00,East,90,5.0,-999.0,72,-99.99,,,-99.99,,2013-02-02 15:32:00,
2013-02-02 11:41:00,4.0,-3.0,-100.00,East,90,5.0,-999.0,72,-99.99,,,-99.99,,2013-02-02 15:41:00,
2013-02-02 11:51:00,4.0,-3.0,-100.00,East,90,5.0,-999.0,72,-99.99,,,-99.99,,2013-02-02 15:51:00,
2013-02-02 12:00:00,5.0,-2.0,-100.00,NE,50,8.0,-999.0,70,-99.99,,,-99.99,,2013-02-02 16:00:00,
2013-02-02 12:21:00,5.0,-2.0,-100.00,NE,50,8.0,-999.0,70,-99.99,,,-99.99,,2013-02-02 16:21:00,
2013-02-02 12:31:00,5.0,-2.0,-100.00,NE,50,8.0,-999.0,70,-99.99,,,-99.99,,2013-02-02 16:31:00,
2013-02-02 12:42:00,5.0,-2.0,-100.00,NE,50,8.0,-999.0,70,-99.99,,,-99.99,,2013-02-02 16:42:00,
2013-02-02 12:51:00,5.0,-2.0,-100.00,NE,50,8.0,-999.0,70,-99.99,,,-99.99,,2013-02-02 16:51:00,
2013-02-02 13:00:00,7.0,0.0,-100.00,NE,40,6.0,-999.0,74,-99.99,,,-99.99,,2013-02-02 17:00:00,
2013-02-02 13:21:00,7.0,0.0,-100.00,NE,40,6.0,-999.0,74,-99.99,,,-99.99,,2013-02-02 17:21:00,
2013-02-02 13:31:00,7.0,0.0,-100.00,NE,40,6.0,-999.0,74,-99.99,,,-99.99,,2013-02-02 17:31:00,
2013-02-02 13:41:00,7.0,0.0,-100.00,NE,40,6.0,-999.0,74,-99.99,,,-99.99,,2013-02-02 17:41:00,
2013-02-02 13:52:00,7.0,0.0,-100.00,NE,40,6.0,-999.0,74,-99.99,,,-99.99,,2013-02-02 17:52:00,
2013-02-02 14:00:00,8.0,2.0,-100.00,East,80,7.0,-999.0,75,-99.99,,,-99.99,,2013-02-02 18:00:00,
2013-02-02 14:21:00,8.0,2.0,-100.00,East,80,7.0,-999.0,75,-99.99,,,-99.99,,2013-02-02 18:21:00,
2013-02-02 14:31:00,8.0,2.0,-100.00,East,80,7.0,-999.0,75,-99.99,,,-99.99,,2013-02-02 18:31:00,
2013-02-02 14:41:00,8.0,2.0,-100.00,East,80,7.0,-999.0,75,-99.99,,,-99.99,,2013-02-02 18:41:00,
2013-02-02 14:52:00,8.0,2.0,-100.00,East,80,7.0,-999.0,75,-99.99,,,-99.99,,2013-02-02 18:52:00,
2013-02-02 15:00:00,9.0,4.0,-100.00,NE,50,8.0,-999.0,78,-99.99,,,-99.99,,2013-02-02 19:00:00,
2013-02-02 15:21:00,9.0,4.0,-100.00,NE,50,8.0,-999.0,78,-99.99,,,-99.99,,2013-02-02 19:21:00,
2013-02-02 15:31:00,9.0,4.0,-100.00,NE,50,8.0,-999.0,78,-99.99,,,-99.99,,2013-02-02 19:31:00,
2013-02-02 15:41:00,9.0,4.0,-100.00,NE,50,8.0,-999.0,78,-99.99,,,-99.99,,2013-02-02 19:41:00,
2013-02-02 15:51:00,9.0,4.0,-100.00,NE,50,8.0,-999.0,78,-99.99,,,-99.99,,2013-02-02 19:51:00,
2013-02-02 16:00:00,9.0,5.0,-100.00,NNE,30,10.0,-999.0,82,-99.99,,,-99.99,,2013-02-02 20:00:00,
2013-02-02 16:21:00,9.0,5.0,-100.00,NNE,30,10.0,-999.0,82,-99.99,,,-99.99,,2013-02-02 20:21:00,
2013-02-02 16:31:00,9.0,5.0,-100.00,NNE,30,10.0,-999.0,82,-99.99,,,-99.99,,2013-02-02 20:31:00,
2013-02-02 16:41:00,9.0,5.0,-100.00,NNE,30,10.0,-999.0,82,-99.99,,,-99.99,,2013-02-02 20:41:00,
2013-02-02 16:52:00,9.0,5.0,-100.00,NNE,30,10.0,-999.0,82,-99.99,,,-99.99,,2013-02-02 20:52:00,
2013-02-02 17:00:00,9.0,5.0,-100.00,NNE,30,10.0,-999.0,83,-99.99,,,-99.99,,2013-02-02 21:00:00,
2013-02-02 17:21:00,9.0,5.0,-100.00,NNE,30,10.0,-999.0,83,-99.99,,,-99.99,,2013-02-02 21:21:00,
2013-02-02 17:32:00,9.0,5.0,-100.00,NNE,30,10.0,-999.0,83,-99.99,,,-99.99,,2013-02-02 21:32:00,
2013-02-02 17:42:00,9.0,5.0,-100.00,NNE,30,10.0,-999.0,83,-99.99,,,-99.99,,2013-02-02 21:42:00,
2013-02-02 17:51:00,9.0,5.0,-100.00,NNE,30,10.0,-999.0,83,-99.99,,,-99.99,,2013-02-02 21:51:00,
2013-02-02 18:00:00,8.0,5.0,-100.00,NE,40,9.0,-999.0,85,-99.99,,,-99.99,,2013-02-02 22:00:00,
2013-02-02 18:21:00,8.0,5.0,-100.00,NE,40,9.0,-999.0,85,-99.99,,,-99.99,,2013-02-02 22:21:00,
2013-02-02 18:32:00,8.0,5.0,-100.00,NE,40,9.0,-999.0,85,-99.99,,,-99.99,,2013-02-02 22:32:00,
2013-02-02 18:41:00,8.0,5.0,-100.00,NE,40,9.0,-999.0,85,-99.99,,,-99.99,,2013-02-02 22:41:00,
2013-02-02 18:51:00,8.0,5.0,-100.00,NE,40,9.0,-999.0,85,-99.99,,,-99.99,,2013-02-02 22:51:00,
2013-02-02 19:00:00,8.0,4.0,-100.00,NE,40,10.0,-999.0,84,-99.99,,,-99.99,,2013-02-02 23:00:00,
2013-02-02 19:21:00,8.0,4.0,-100.00,NE,40,10.0,-999.0,84,-99.99,,,-99.99,,2013-02-02 23:21:00,
2013-02-02 19:32:00,8.0,4.0,-100.00,NE,40,10.0,-999.0,84,-99.99,,,-99.99,,2013-02-02 23:32:00,
2013-02-02 19:41:00,8.0,4.0,-100.00,NE,40,10.0,-999.0,84,-99.99,,,-99.99,,2013-02-02 23:41:00,
2013-02-02 19:52:00,8.0,4.0,-100.00,NE,40,10.0,-999.0,84,-99.99,,,-99.99,,2013-02-02 23:52:00,
2013-02-02 20:00:00,8.0,4.0,-100.00,NE,40,11.0,-999.0,86,-99.99,,,-99.99,,2013-02-03 00:00:00,
2013-02-02 20:21:00,8.0,4.0,-100.00,NE,40,11.0,-999.0,86,-99.99,,,-99.99,,2013-02-03 00:21:00,
2013-02-02 20:31:00,8.0,4.0,-100.00,NE,40,11.0,-999.0,86,-99.99,,,-99.99,,2013-02-03 00:31:00,
2013-02-02 20:41:00,8.0,4.0,-100.00,NE,40,11.0,-999.0,86,-99.99,,,-99.99,,2013-02-03 00:41:00,
2013-02-02 20:51:00,8.0,4.0,-100.00,NE,40,11.0,-999.0,86,-99.99,,,-99.99,,2013-02-03 00:51:00,
2013-02-02 21:00:00,9.0,6.0,-100.00,North,360,8.0,-999.0,87,-99.99,,,-99.99,,2013-02-03 01:00:00,
2013-02-02 21:21:00,9.0,6.0,-100.00,North,360,8.0,-999.0,87,-99.99,,,-99.99,,2013-02-03 01:21:00,
2013-02-02 21:32:00,9.0,6.0,-100.00,North,360,8.0,-999.0,87,-99.99,,,-99.99,,2013-02-03 01:32:00,
2013-02-02 21:41:00,9.0,6.0,-100.00,North,360,8.0,-999.0,87,-99.99,,,-99.99,,2013-02-03 01:41:00,
2013-02-02 21:51:00,9.0,6.0,-100.00,North,360,8.0,-999.0,87,-99.99,,,-99.99,,2013-02-03 01:51:00,
2013-02-02 22:00:00,6.0,4.0,-100.00,NNE,30,11.0,-999.0,87,-99.99,,,-99.99,,2013-02-03 02:00:00,
2013-02-02 22:21:00,6.0,4.0,-100.00,NNE,30,11.0,-999.0,87,-99.99,,,-99.99,,2013-02-03 02:21:00,
2013-02-02 22:31:00,6.0,4.0,-100.00,NNE,30,11.0,-999.0,87,-99.99,,,-99.99,,2013-02-03 02:31:00,
2013-02-02 22:41:00,6.0,4.0,-100.00,NNE,30,11.0,-999.0,87,-99.99,,,-99.99,,2013-02-03 02:41:00,
2013-02-02 22:52:00,6.0,4.0,-100.00,NNE,30,11.0,-999.0,87,-99.99,,,-99.99,,2013-02-03 02:52:00,
2013-02-02 23:00:00,6.0,3.0,-100.00,NE,40,10.0,-999.0,86,-99.99,,,-99.99,,2013-02-03 03:00:00,
2013-02-02 23:21:00,6.0,3.0,-100.00,NE,40,10.0,-999.0,86,-99.99,,,-99.99,,2013-02-03 03:21:00,
2013-02-02 23:31:00,6.0,3.0,-100.00,NE,40,10.0,-999.0,86,-99.99,,,-99.99,,2013-02-03 03:31:00,
2013-02-02 23:41:00,6.0,3.0,-100.00,NE,40,10.0,-999.0,86,-99.99,,,-99.99,,2013-02-03 03:41:00,
2013-02-02 23:51:00,6.0,3.0,-100.00,NE,40,10.0,-999.0,86,-99.99,,,-99.99,,2013-02-03 03:51:00,